Time;durP1;ratioP1;P1;durP2;ratioP2;P2;SDS_P1;SDS_P2;PMS_P1;PMS_P2;Temp;Humidity;BMP_temperature;BMP_pressure;BME280_temperature;BME280_humidity;BME280_pressure;Samples;Min_cycle;Max_cycle;Signal;HPM_P1;HPM_P2
2022/08/24 00:01:16;;;;;;;22.20;20.30;;;17.20;99.90;;;;;;6192260;23;20012;-77
2022/08/24 00:03:46;;;;;;;22.33;20.33;;;17.20;99.90;;;;;;6193165;22;20078;-77
2022/08/24 00:06:21;;;;;;;23.48;21.58;;;17.20;99.90;;;;;;6244226;23;20020;-77
2022/08/24 00:08:52;;;;;;;21.35;19.48;;;17.10;99.90;;;;;;6192886;23;20016;-77
2022/08/24 00:11:18;;;;;;;21.45;19.55;;;17.10;99.90;;;;;;6192074;23;20013;-77
2022/08/24 00:13:49;;;;;;;23.13;21.13;;;17.00;99.90;;;;;;6193585;23;20016;-77
2022/08/24 00:16:22;;;;;;;24.73;22.55;;;17.00;99.90;;;;;;6193315;23;20433;-77
2022/08/24 00:18:59;;;;;;;24.35;22.15;;;17.00;99.90;;;;;;6215436;23;20052;-77
2022/08/24 00:21:25;;;;;;;23.50;21.45;;;16.90;99.90;;;;;;6192161;23;20066;-77
2022/08/24 00:24:14;;;;;;;24.98;22.77;;;16.90;99.90;;;;;;6220375;23;20051;-77
2022/08/24 00:26:44;;;;;;;23.67;21.67;;;16.80;99.90;;;;;;6192363;23;20016;-77
2022/08/24 00:29:18;;;;;;;28.10;25.63;;;16.80;99.90;;;;;;6192499;23;20081;-77
2022/08/24 00:31:49;;;;;;;24.98;22.88;;;16.80;99.90;;;;;;6192046;23;20016;-77
2022/08/24 00:34:27;;;;;;;24.38;22.30;;;16.80;99.90;;;;;;6194736;23;20012;-77
2022/08/24 00:37:01;;;;;;;24.45;22.35;;;16.70;99.90;;;;;;6191904;23;20345;-77
2022/08/24 00:39:33;;;;;;;23.30;21.35;;;16.70;99.90;;;;;;6216191;23;20313;-77
2022/08/24 00:42:14;;;;;;;22.95;20.95;;;16.70;99.90;;;;;;6193073;23;20015;-77
2022/08/24 00:44:47;;;;;;;24.45;22.25;;;16.70;99.90;;;;;;6240908;22;20070;-77
2022/08/24 00:47:27;;;;;;;23.95;21.95;;;16.50;99.90;;;;;;6185806;23;20016;-77
2022/08/24 00:50:04;;;;;;;23.88;21.85;;;16.60;99.90;;;;;;6217252;23;20436;-77
2022/08/24 00:52:51;;;;;;;25.13;22.92;;;16.60;99.90;;;;;;6169736;23;20023;-77
2022/08/24 00:55:41;;;;;;;24.35;22.17;;;16.60;99.90;;;;;;6192401;23;20016;-77
2022/08/24 00:58:33;;;;;;;25.85;23.65;;;16.50;99.90;;;;;;6243976;23;20321;-77
2022/08/24 01:01:19;;;;;;;;;;;;;;;;;;;;;
2022/08/24 01:03:56;;;;;;;24.15;22.05;;;16.40;99.90;;;;;;6245034;22;20016;-78
2022/08/24 01:06:27;;;;;;;26.45;24.15;;;16.50;99.90;;;;;;6195467;23;20023;-78
2022/08/24 01:08:56;;;;;;;26.67;24.33;;;16.40;99.90;;;;;;6193821;23;20016;-78
2022/08/24 01:11:32;;;;;;;28.05;25.65;;;16.40;99.90;;;;;;6193745;23;20022;-78
2022/08/24 01:14:08;;;;;;;27.83;25.35;;;16.40;99.90;;;;;;6236031;22;20012;-77
2022/08/24 01:19:35;;;;;;;23.10;21.05;;;16.30;99.90;;;;;;6220341;23;20016;-78
2022/08/24 01:22:22;;;;;;;21.30;19.45;;;16.30;99.90;;;;;;6196880;23;20027;-77
2022/08/24 01:25:09;;;;;;;21.35;19.55;;;16.20;99.90;;;;;;6195723;23;20062;-78
2022/08/24 01:27:46;;;;;;;20.92;19.20;;;16.30;99.90;;;;;;6195789;23;20343;-77
2022/08/24 01:30:18;;;;;;;22.70;20.80;;;16.30;99.90;;;;;;6195983;23;20012;-78
2022/08/24 01:33:12;;;;;;;22.27;20.42;;;16.20;99.90;;;;;;6197261;23;20344;-78
2022/08/24 01:35:47;;;;;;;22.38;20.45;;;16.20;99.90;;;;;;6196235;23;20341;-78
2022/08/24 01:38:22;;;;;;;22.90;20.95;;;16.10;99.90;;;;;;6197315;23;20019;-78
2022/08/24 01:40:57;;;;;;;21.45;19.55;;;16.20;99.90;;;;;;6189456;23;20044;-78
2022/08/24 01:43:54;;;;;;;22.08;20.30;;;16.20;99.90;;;;;;6196589;22;20008;-78
2022/08/24 01:46:23;;;;;;;20.48;18.77;;;16.20;99.90;;;;;;6174537;23;20012;-78
2022/08/24 01:48:58;;;;;;;24.00;21.95;;;16.10;99.90;;;;;;6195783;23;20388;-78
2022/08/24 01:51:38;;;;;;;25.40;23.20;;;16.10;99.90;;;;;;6246496;23;20087;-78
2022/08/24 01:54:12;;;;;;;24.08;22.00;;;16.10;99.90;;;;;;6197392;23;20016;-78
2022/08/24 01:56:39;;;;;;;22.45;20.45;;;16.10;99.90;;;;;;6196512;23;20143;-78
2022/08/24 01:59:23;;;;;;;21.38;19.50;;;16.10;99.90;;;;;;6197332;23;20012;-78
2022/08/24 02:01:56;;;;;;;23.10;21.17;;;16.10;99.90;;;;;;6196167;23;20016;-78
2022/08/24 02:04:25;;;;;;;22.45;20.55;;;16.10;99.90;;;;;;6196564;23;20095;-78
2022/08/24 02:06:58;;;;;;;25.80;23.60;;;16.00;99.90;;;;;;6195945;23;20016;-78
2022/08/24 02:09:35;;;;;;;26.70;24.40;;;16.00;99.90;;;;;;6195695;23;20016;-78
2022/08/24 02:12:02;;;;;;;26.23;23.92;;;16.00;99.90;;;;;;6196227;23;20091;-78
2022/08/24 02:14:29;;;;;;;23.83;21.67;;;16.00;99.90;;;;;;6195504;23;20016;-78
2022/08/24 02:16:56;;;;;;;21.58;19.67;;;16.00;99.90;;;;;;6217546;23;20012;-78
2022/08/24 02:19:26;;;;;;;26.15;23.83;;;15.90;99.90;;;;;;6195429;23;20333;-78
2022/08/24 02:21:54;;;;;;;26.17;23.70;;;15.90;99.90;;;;;;6196289;23;20008;-78
2022/08/24 02:24:23;;;;;;;25.75;23.45;;;15.90;99.90;;;;;;6195456;23;20015;-78
2022/08/24 02:27:04;;;;;;;26.35;24.05;;;15.80;99.90;;;;;;6194542;23;20419;-78
2022/08/24 02:29:42;;;;;;;22.58;20.48;;;15.80;99.90;;;;;;6196849;23;20075;-78
2022/08/24 02:32:11;;;;;;;25.52;23.27;;;15.80;99.90;;;;;;6172386;23;20023;-78
2022/08/24 02:34:47;;;;;;;25.45;23.25;;;15.90;99.90;;;;;;6196462;23;20127;-78
2022/08/24 02:37:24;;;;;;;22.02;20.15;;;15.70;99.90;;;;;;6198127;23;20534;-78
2022/08/24 02:40:03;;;;;;;25.23;23.00;;;15.70;99.90;;;;;;6194855;23;20441;-78
2022/08/24 02:42:40;;;;;;;24.48;22.30;;;15.80;99.90;;;;;;6196441;23;20008;-78
2022/08/24 02:45:15;;;;;;;24.25;22.13;;;15.70;99.90;;;;;;6196340;23;20016;-78
2022/08/24 02:47:44;;;;;;;24.55;22.42;;;15.70;99.90;;;;;;6197007;23;20027;-78
2022/08/24 02:50:16;;;;;;;23.67;21.63;;;15.70;99.90;;;;;;6202728;23;20074;-77
2022/08/24 02:52:48;;;;;;;25.13;22.92;;;15.70;99.90;;;;;;6197648;23;20058;-78
2022/08/24 02:55:17;;;;;;;26.48;24.20;;;15.70;99.90;;;;;;6196913;23;20016;-78
2022/08/24 02:57:51;;;;;;;26.30;23.92;;;15.70;99.90;;;;;;6196231;23;20439;-77
2022/08/24 03:00:31;;;;;;;24.88;22.77;;;15.60;99.90;;;;;;6196458;23;20012;-77
2022/08/24 03:02:57;;;;;;;26.52;24.23;;;15.60;99.90;;;;;;6195873;23;20012;-78
2022/08/24 03:05:26;;;;;;;26.20;23.90;;;15.60;99.90;;;;;;6196645;23;20043;-78
2022/08/24 03:07:52;;;;;;;23.13;21.08;;;15.60;99.90;;;;;;6193479;23;20013;-78
2022/08/24 03:10:20;;;;;;;22.08;20.17;;;15.60;99.90;;;;;;6196701;23;20348;-78
2022/08/24 03:12:47;;;;;;;24.65;22.65;;;15.60;99.90;;;;;;6196561;23;20017;-78
2022/08/24 03:15:23;;;;;;;24.23;22.23;;;15.60;99.90;;;;;;6197185;23;20095;-78
2022/08/24 03:17:49;;;;;;;20.90;19.10;;;15.50;99.90;;;;;;6195594;23;20297;-78
2022/08/24 03:20:18;;;;;;;25.75;23.55;;;15.50;99.90;;;;;;6221588;23;20012;-78
2022/08/24 03:22:46;;;;;;;25.98;23.80;;;15.50;99.90;;;;;;6196061;23;20325;-78
2022/08/24 03:25:13;;;;;;;24.20;22.10;;;15.50;99.90;;;;;;6196375;23;20012;-78
2022/08/24 03:27:43;;;;;;;25.00;22.80;;;15.50;99.90;;;;;;6199002;23;20078;-77
2022/08/24 03:30:18;;;;;;;24.27;22.27;;;15.50;99.90;;;;;;6200518;23;20115;-78
2022/08/24 03:32:50;;;;;;;27.05;24.77;;;15.40;99.90;;;;;;6224138;23;20016;-78
2022/08/24 03:35:24;;;;;;;26.52;24.23;;;15.50;99.90;;;;;;6194761;23;20012;-78
2022/08/24 03:38:07;;;;;;;26.60;24.30;;;15.50;99.90;;;;;;6219528;23;20020;-78
2022/08/24 03:40:33;;;;;;;25.73;23.52;;;15.50;99.90;;;;;;6195389;23;20012;-78
2022/08/24 03:43:44;;;;;;;23.13;21.17;;;15.50;99.90;;;;;;6196430;23;20520;-78
2022/08/24 03:46:03;;;;;;;23.13;21.15;;;15.50;99.90;;;;;;6219965;23;20031;-78
2022/08/24 03:48:32;;;;;;;23.60;21.63;;;15.50;99.90;;;;;;6194551;23;20016;-78
2022/08/24 03:51:00;;;;;;;24.98;22.77;;;15.40;99.90;;;;;;6219435;23;20034;-78
2022/08/24 03:53:29;;;;;;;24.15;22.17;;;15.50;99.90;;;;;;6194673;22;20016;-78
2022/08/24 03:55:57;;;;;;;24.98;22.88;;;15.50;99.90;;;;;;6220392;23;20361;-78
2022/08/24 03:58:27;;;;;;;24.27;22.17;;;15.40;99.90;;;;;;6194928;23;20071;-78
2022/08/24 04:00:58;;;;;;;21.20;19.40;;;15.40;99.90;;;;;;6193554;23;20428;-78
2022/08/24 04:03:28;;;;;;;21.60;19.80;;;15.40;99.90;;;;;;6194696;22;20069;-78
2022/08/24 04:05:54;;;;;;;24.15;22.20;;;15.40;99.90;;;;;;6193663;23;20008;-77
2022/08/24 04:08:19;;;;;;;21.58;19.83;;;15.40;99.90;;;;;;6194459;23;20444;-77
2022/08/24 04:10:53;;;;;;;18.95;17.38;;;15.40;99.90;;;;;;6194601;23;20020;-78
2022/08/24 04:13:21;;;;;;;19.63;18.02;;;15.40;99.90;;;;;;6195295;23;20008;-78
2022/08/24 04:15:57;;;;;;;21.00;19.20;;;15.30;99.90;;;;;;6194961;23;20016;-77
2022/08/24 04:18:26;;;;;;;20.63;18.98;;;15.30;99.90;;;;;;6194166;23;20019;-78
2022/08/24 04:20:55;;;;;;;18.95;17.45;;;15.20;99.90;;;;;;6195526;23;20012;-78
2022/08/24 04:23:21;;;;;;;17.15;15.75;;;15.30;99.90;;;;;;6194694;23;20102;-77
2022/08/24 04:25:48;;;;;;;21.45;19.65;;;15.30;99.90;;;;;;6193524;23;20059;-78
2022/08/24 04:28:18;;;;;;;21.98;20.17;;;15.20;99.90;;;;;;6195328;23;20550;-80
2022/08/24 04:30:57;;;;;;;24.20;22.10;;;15.20;99.90;;;;;;6197742;23;20027;-80
2022/08/24 04:33:26;;;;;;;22.75;20.83;;;15.10;99.90;;;;;;6197243;22;20070;-80
2022/08/24 04:36:01;;;;;;;23.48;21.50;;;15.20;99.90;;;;;;6197351;23;20066;-80
2022/08/24 04:38:28;;;;;;;24.00;21.92;;;15.10;99.90;;;;;;6196379;23;20023;-80
2022/08/24 04:41:02;;;;;;;22.27;20.48;;;15.20;99.90;;;;;;6172188;23;20030;-79
2022/08/24 04:43:28;;;;;;;21.67;19.88;;;15.10;99.90;;;;;;6172925;22;20016;-79
2022/08/24 04:45:54;;;;;;;19.65;18.05;;;15.10;99.90;;;;;;6193309;23;20449;-80
2022/08/24 04:48:23;;;;;;;21.30;19.50;;;15.10;99.90;;;;;;6191367;23;20021;-77
2022/08/24 04:50:48;;;;;;;20.08;18.48;;;15.10;99.90;;;;;;6194043;23;20113;-77
2022/08/24 04:53:18;;;;;;;18.52;17.02;;;15.10;99.90;;;;;;6193968;23;20095;-78
2022/08/24 04:55:47;;;;;;;21.20;19.40;;;15.10;99.90;;;;;;6194080;23;20016;-78
2022/08/24 04:58:22;;;;;;;21.27;19.58;;;15.00;99.90;;;;;;6195778;23;20012;-77
2022/08/24 05:00:48;;;;;;;22.50;20.67;;;15.00;99.90;;;;;;6193265;23;20012;-78
2022/08/24 05:03:36;;;;;;;23.50;21.60;;;15.00;99.90;;;;;;6193391;23;20014;-78
2022/08/24 05:06:02;;;;;;;26.33;24.02;;;15.20;99.90;;;;;;6194023;23;20008;-77
2022/08/24 05:08:31;;;;;;;25.75;23.65;;;15.00;99.90;;;;;;6194563;23;20112;-78
2022/08/24 05:10:57;;;;;;;26.17;23.98;;;15.10;99.90;;;;;;6194373;23;20012;-78
2022/08/24 05:13:32;;;;;;;25.42;23.23;;;15.10;99.90;;;;;;6193571;22;20359;-77
2022/08/24 05:16:00;;;;;;;22.83;20.92;;;15.10;99.90;;;;;;6193922;23;20024;-78
2022/08/24 05:18:29;;;;;;;23.25;21.35;;;15.10;99.90;;;;;;6193913;23;20471;-78
2022/08/24 05:20:59;;;;;;;24.13;22.20;;;15.20;99.90;;;;;;6194991;23;20012;-78
2022/08/24 05:23:30;;;;;;;24.45;22.35;;;15.20;99.90;;;;;;6194253;22;20014;-78
2022/08/24 05:26:25;;;;;;;25.70;23.55;;;15.20;99.90;;;;;;6193981;23;20015;-78
2022/08/24 05:28:58;;;;;;;26.05;23.75;;;15.30;99.90;;;;;;6192106;23;20135;-78
2022/08/24 05:31:29;;;;;;;24.48;22.48;;;15.30;99.90;;;;;;6194929;23;20012;-78
2022/08/24 05:33:59;;;;;;;23.60;21.60;;;15.30;99.90;;;;;;6225524;23;20012;-77
2022/08/24 05:36:27;;;;;;;22.08;20.10;;;15.40;99.90;;;;;;6194823;23;20012;-78
2022/08/24 05:38:55;;;;;;;22.23;20.42;;;15.50;99.90;;;;;;6194668;23;20023;-78
2022/08/24 05:41:31;;;;;;;23.88;21.67;;;15.40;99.90;;;;;;6220963;23;20091;-78
2022/08/24 05:44:07;;;;;;;25.10;22.95;;;15.50;99.90;;;;;;6196254;23;20012;-78
2022/08/24 05:46:39;;;;;;;26.85;24.65;;;15.60;99.90;;;;;;6194566;23;20019;-78
2022/08/24 05:49:11;;;;;;;26.63;24.33;;;15.60;99.90;;;;;;6196639;23;20095;-77
2022/08/24 05:51:42;;;;;;;28.02;25.60;;;15.60;99.90;;;;;;6194863;23;20016;-78
2022/08/24 05:54:12;;;;;;;34.80;31.63;;;15.70;99.90;;;;;;6194072;23;20016;-78
2022/08/24 05:56:39;;;;;;;35.78;32.38;;;15.80;99.90;;;;;;6194487;23;20008;-78
2022/08/24 05:59:07;;;;;;;38.33;34.67;;;15.80;99.90;;;;;;6194011;23;20016;-78
2022/08/24 06:01:43;;;;;;;39.92;36.03;;;16.00;99.90;;;;;;6197081;23;20016;-78
2022/08/24 06:04:29;;;;;;;36.78;33.13;;;16.00;99.90;;;;;;6196119;23;20103;-78
2022/08/24 06:07:08;;;;;;;39.72;35.75;;;16.10;99.90;;;;;;6195255;23;20016;-78
2022/08/24 06:09:48;;;;;;;43.90;39.63;;;16.20;99.90;;;;;;6194335;23;20023;-78
2022/08/24 06:12:48;;;;;;;42.88;38.58;;;16.30;99.90;;;;;;6197989;23;20352;-79
2022/08/24 06:15:55;;;;;;;47.40;42.45;;;16.40;99.90;;;;;;6182555;23;20145;-78
2022/08/24 06:18:41;;;;;;;49.47;44.30;;;16.60;99.90;;;;;;6196222;23;20019;-78
2022/08/24 06:21:31;;;;;;;51.20;45.80;;;16.70;99.90;;;;;;6197725;23;20012;-79
2022/08/24 06:24:04;;;;;;;50.25;44.88;;;16.80;99.90;;;;;;6199455;23;20023;-80
2022/08/24 06:31:23;;;;;;;50.85;45.25;;;17.10;99.90;;;;;;6220553;23;20337;-82
2022/08/24 06:38:16;;;;;;;56.17;49.88;;;17.30;99.90;;;;;;6073515;23;20022;-80
2022/08/24 06:45:34;;;;;;;57.75;50.55;;;17.70;99.90;;;;;;5993725;24;20472;-80
2022/08/24 06:58:47;;;;;;;52.55;45.80;;;17.80;99.90;;;;;;5129718;27;20106;-78
2022/08/24 07:01:16;;;;;;;52.33;46.75;;;18.40;99.90;;;;;;5115369;27;20044;-78
2022/08/24 07:03:42;;;;;;;52.13;46.65;;;18.50;99.90;;;;;;5128122;27;20039;-80
2022/08/24 07:06:09;;;;;;;48.38;43.30;;;18.60;99.90;;;;;;5145493;27;20479;-80
2022/08/24 07:08:35;;;;;;;46.38;41.65;;;18.80;99.90;;;;;;5124672;28;20046;-80
2022/08/24 07:11:01;;;;;;;44.58;40.15;;;18.90;99.90;;;;;;5120804;28;20086;-80
2022/08/24 07:17:25;;;;;;;45.20;40.80;;;19.00;99.90;;;;;;5033468;28;20044;-82
2022/08/24 07:24:17;;;;;;;42.83;38.53;;;19.30;99.90;;;;;;5066356;28;20093;-80
2022/08/24 07:27:51;;;;;;;;;;;;;;;;;;;;;
2022/08/24 07:31:40;;;;;;;39.63;35.78;;;19.50;99.90;;;;;;5069596;28;20063;-80
2022/08/24 07:38:25;;;;;;;33.38;30.35;;;19.80;99.90;;;;;;4992473;28;20077;-80
2022/08/24 07:42:03;;;;;;;;;;;;;;;;;;;;;
2022/08/24 07:56:48;;;;;;;24.35;22.15;;;20.50;99.90;;;;;;4921801;29;20074;-79
2022/08/24 08:19:11;;;;;;;19.60;17.88;;;21.50;99.90;;;;;;4867701;29;20043;-81
2022/08/24 08:37:44;;;;;;;14.27;12.90;;;24.00;99.90;;;;;;5190814;22;20049;-83
2022/08/24 08:40:54;;;;;;;13.30;11.90;;;25.00;99.90;;;;;;4965612;28;20046;-80
2022/08/24 08:59:28;;;;;;;7.43;5.53;;;28.70;99.90;;;;;;4880696;29;20045;-80
2022/08/24 09:06:10;;;;;;;;;;;;;;;;;;;;;
2022/08/24 09:16:37;;;;;;;5.18;4.60;;;31.00;88.40;;;;;;4999005;28;20045;-80
2022/08/24 09:27:20;;;;;;;;;;;;;;;;;;;;;
2022/08/24 09:30:46;;;;;;;;;;;;;;;;;;;;;
2022/08/24 09:34:06;;;;;;;4.25;3.63;;;32.40;75.50;;;;;;5012892;28;20049;-79
2022/08/24 09:37:41;;;;;;;3.97;3.25;;;32.40;77.60;;;;;;4941565;29;20050;-80
2022/08/24 09:41:32;;;;;;;;;;;;;;;;;;;;;
2022/08/24 09:48:38;;;;;;;3.70;2.97;;;33.00;70.00;;;;;;4966115;28;20058;-80
2022/08/24 09:51:41;;;;;;;2.83;2.45;;;33.20;71.10;;;;;;5008282;28;20049;-80
2022/08/24 09:55:18;;;;;;;3.20;2.90;;;33.20;69.90;;;;;;5027544;28;20122;-79
2022/08/24 09:58:41;;;;;;;3.47;2.90;;;33.30;70.80;;;;;;4920297;28;20104;-80
2022/08/24 10:01:52;;;;;;;3.28;2.97;;;33.40;70.10;;;;;;4960555;28;20041;-80
2022/08/24 10:05:13;;;;;;;3.55;3.13;;;33.40;68.50;;;;;;4964583;28;20043;-80
2022/08/24 10:08:56;;;;;;;;;;;;;;;;;;;;;
2022/08/24 10:37:46;;;;;;;0.80;0.80;;;33.40;62.90;;;;;;4849169;29;20096;-77
2022/08/24 10:45:02;;;;;;;;;;;;;;;;;;;;;
2022/08/24 10:48:46;;;;;;;1.77;1.10;;;33.70;61.60;;;;;;4940636;29;20504;-80
2022/08/24 10:52:49;;;;;;;;;;;;;;;;;;;;;
2022/08/24 10:56:25;;;;;;;;;;;;;;;;;;;;;
2022/08/24 10:59:58;;;;;;;1.90;1.40;;;33.20;59.80;;;;;;4855213;29;20132;-80
2022/08/24 11:06:49;;;;;;;0.68;0.68;;;33.20;64.60;;;;;;4867520;29;20049;-80
2022/08/24 11:18:13;;;;;;;1.45;1.10;;;33.90;61.90;;;;;;4864541;29;20117;-79
2022/08/24 11:35:45;;;;;;;0.93;0.60;;;34.10;58.80;;;;;;4951261;22;20388;-78
2022/08/24 11:38:17;;;;;;;0.93;0.70;;;33.40;59.90;;;;;;5046143;28;20106;-79
2022/08/24 11:40:50;;;;;;;0.70;0.70;;;32.90;61.30;;;;;;5055442;28;20327;-79
2022/08/24 11:43:54;;;;;;;1.05;0.73;;;32.50;62.90;;;;;;5061766;28;20139;-78
2022/08/24 11:46:38;;;;;;;1.75;0.80;;;32.10;64.10;;;;;;4953065;28;20049;-78
2022/08/24 11:49:25;;;;;;;0.90;0.68;;;31.90;65.00;;;;;;5036737;28;20048;-79
2022/08/24 11:52:14;;;;;;;0.80;0.80;;;32.10;65.20;;;;;;5043203;28;20501;-79
2022/08/24 11:54:59;;;;;;;1.15;1.05;;;32.20;64.90;;;;;;5007414;28;20045;-78
2022/08/24 11:57:43;;;;;;;0.98;0.90;;;32.00;63.20;;;;;;5043145;28;20033;-78
2022/08/24 12:00:17;;;;;;;0.98;0.90;;;31.60;63.30;;;;;;5023949;28;20044;-78
2022/08/24 12:03:22;;;;;;;1.00;0.90;;;31.10;63.20;;;;;;5038808;28;21309;-79
2022/08/24 12:06:02;;;;;;;1.30;0.73;;;30.60;63.90;;;;;;5012459;28;20048;-79
2022/08/24 12:08:37;;;;;;;0.70;0.70;;;30.20;65.50;;;;;;5038827;28;20040;-80
2022/08/24 12:11:32;;;;;;;1.60;0.90;;;29.90;66.60;;;;;;5020629;28;20051;-79
2022/08/24 12:14:15;;;;;;;1.02;0.82;;;29.70;67.70;;;;;;5029939;28;20416;-79
2022/08/24 12:17:02;;;;;;;2.83;1.00;;;29.60;69.20;;;;;;5025527;28;20137;-79
2022/08/24 12:19:35;;;;;;;0.90;0.90;;;29.70;70.00;;;;;;5023367;28;20404;-79
2022/08/24 12:22:03;;;;;;;1.38;1.00;;;30.50;69.10;;;;;;5022110;28;20036;-80
2022/08/24 12:24:55;;;;;;;1.27;1.00;;;31.40;67.40;;;;;;5020990;28;20453;-80
2022/08/24 12:27:23;;;;;;;1.00;0.90;;;31.70;65.80;;;;;;5018068;28;20524;-79
2022/08/24 12:30:03;;;;;;;1.20;0.85;;;31.50;66.40;;;;;;5043629;28;20132;-79
2022/08/24 12:32:49;;;;;;;1.02;0.85;;;31.30;63.00;;;;;;5036259;28;20037;-79
2022/08/24 12:35:30;;;;;;;0.80;0.80;;;30.90;65.00;;;;;;5019446;28;20045;-79
2022/08/24 12:38:21;;;;;;;1.50;0.98;;;30.50;66.80;;;;;;5039869;28;20124;-79
2022/08/24 12:41:00;;;;;;;1.10;0.70;;;30.20;68.00;;;;;;5017347;28;20037;-79
2022/08/24 12:43:47;;;;;;;0.70;0.70;;;30.10;68.30;;;;;;5030306;28;20426;-79
2022/08/24 12:46:16;;;;;;;1.17;0.90;;;30.40;68.60;;;;;;5009059;28;20041;-79
2022/08/24 12:49:06;;;;;;;0.80;0.77;;;30.70;68.30;;;;;;5011224;28;20041;-79
2022/08/24 12:51:40;;;;;;;1.30;0.90;;;31.20;65.80;;;;;;5004551;28;20087;-79
2022/08/24 12:54:30;;;;;;;0.50;0.50;;;31.30;65.90;;;;;;5023382;28;20120;-79
2022/08/24 12:56:56;;;;;;;0.63;0.60;;;31.40;63.40;;;;;;5026253;28;20080;-79
2022/08/24 12:59:35;;;;;;;0.95;0.80;;;31.30;64.50;;;;;;5046530;28;20053;-79
2022/08/24 13:02:21;;;;;;;0.70;0.70;;;31.20;64.20;;;;;;5015724;28;20038;-79
2022/08/24 13:04:50;;;;;;;1.23;0.70;;;31.00;64.10;;;;;;5015936;28;20077;-79
2022/08/24 13:07:18;;;;;;;0.70;0.70;;;30.90;65.40;;;;;;5008995;28;20545;-82
2022/08/24 13:09:59;;;;;;;0.60;0.60;;;30.70;66.50;;;;;;5017543;28;20044;-82
2022/08/24 13:12:43;;;;;;;0.57;0.57;;;30.70;67.20;;;;;;5029908;28;20037;-82
2022/08/24 13:15:21;;;;;;;0.77;0.73;;;30.60;67.50;;;;;;5016271;28;20197;-82
2022/08/24 13:17:53;;;;;;;1.13;0.70;;;30.40;67.70;;;;;;5030194;28;20041;-82
2022/08/24 13:20:27;;;;;;;0.60;0.60;;;30.30;68.30;;;;;;5051129;28;20044;-82
2022/08/24 13:23:13;;;;;;;0.98;0.70;;;30.50;66.90;;;;;;5015388;28;20059;-82
2022/08/24 14:00:47;;;;;;;1.17;0.70;;;30.20;66.60;;;;;;5022411;28;20056;-78
2022/08/24 14:03:21;;;;;;;0.68;0.55;;;30.60;66.40;;;;;;4995893;28;20037;-79
2022/08/24 14:06:21;;;;;;;0.52;0.52;;;31.00;66.30;;;;;;5000367;28;20040;-79
2022/08/24 14:09:04;;;;;;;0.95;0.80;;;31.50;63.10;;;;;;4994837;28;20033;-79
2022/08/24 14:12:05;;;;;;;0.60;0.60;;;31.70;63.00;;;;;;4998614;28;20485;-78
2022/08/24 14:14:58;;;;;;;0.57;0.57;;;32.00;64.10;;;;;;4991791;28;20054;-79
2022/08/24 14:20:38;;;;;;;1.00;0.70;;;32.60;61.50;;;;;;5000170;28;20052;-78
2022/08/24 14:23:23;;;;;;;0.75;0.60;;;32.20;60.40;;;;;;4986480;28;20042;-78
2022/08/24 14:25:50;;;;;;;0.77;0.70;;;31.50;62.30;;;;;;4990648;28;20065;-79
2022/08/24 14:28:37;;;;;;;0.93;0.65;;;31.10;63.50;;;;;;4985996;28;20037;-79
2022/08/24 14:31:28;;;;;;;0.85;0.73;;;30.70;65.80;;;;;;4976722;28;20605;-78
2022/08/24 14:33:58;;;;;;;0.73;0.65;;;30.40;65.90;;;;;;4982951;28;20570;-78
2022/08/24 14:36:45;;;;;;;0.82;0.70;;;30.30;66.70;;;;;;5000236;28;20067;-78
2022/08/24 14:39:34;;;;;;;0.70;0.70;;;30.30;66.50;;;;;;4994401;28;20069;-78
2022/08/24 14:42:33;;;;;;;1.27;0.73;;;30.30;66.90;;;;;;4976899;28;20037;-78
2022/08/24 14:45:05;;;;;;;0.60;0.60;;;30.20;67.80;;;;;;5001373;28;20046;-78
2022/08/24 14:47:50;;;;;;;0.98;0.75;;;30.10;66.50;;;;;;5003386;28;20088;-78
2022/08/24 14:50:25;;;;;;;1.23;0.77;;;29.90;67.10;;;;;;4958995;28;20057;-78
2022/08/24 14:53:33;;;;;;;0.60;0.60;;;29.90;68.20;;;;;;4961384;28;20037;-78
2022/08/24 14:56:19;;;;;;;0.85;0.60;;;29.80;69.10;;;;;;4957054;28;20049;-78
2022/08/24 14:59:06;;;;;;;0.95;0.80;;;29.80;65.60;;;;;;4997405;28;20049;-78
2022/08/24 15:01:42;;;;;;;1.13;0.80;;;29.60;67.80;;;;;;4978074;28;20044;-79
2022/08/24 15:04:40;;;;;;;1.33;0.70;;;29.40;66.90;;;;;;4976476;28;20033;-79
2022/08/24 15:07:28;;;;;;;0.80;0.80;;;29.30;66.60;;;;;;5004686;28;20123;-79
2022/08/24 15:09:55;;;;;;;0.98;0.80;;;29.10;65.80;;;;;;4984495;28;20092;-79
2022/08/24 15:12:46;;;;;;;0.80;0.70;;;29.10;67.40;;;;;;5005715;28;20099;-79
2022/08/24 15:15:43;;;;;;;0.70;0.60;;;29.00;68.50;;;;;;4994423;28;20416;-79
2022/08/24 15:18:41;;;;;;;0.77;0.77;;;28.90;67.80;;;;;;4993988;28;20030;-75
2022/08/24 15:21:16;;;;;;;1.15;0.70;;;28.70;67.60;;;;;;4992272;28;20053;-78
2022/08/24 15:24:14;;;;;;;0.77;0.77;;;28.60;68.40;;;;;;4981464;28;20096;-80
2022/08/24 15:27:01;;;;;;;0.93;0.70;;;28.60;69.80;;;;;;5017619;28;20515;-80
2022/08/24 15:29:30;;;;;;;0.88;0.82;;;28.50;70.60;;;;;;5017725;28;20048;-81
2022/08/24 15:32:09;;;;;;;0.77;0.77;;;28.40;71.40;;;;;;5001206;28;20505;-82
2022/08/24 15:34:48;;;;;;;0.98;0.77;;;28.40;71.80;;;;;;5005881;28;20064;-81
2022/08/24 15:37:23;;;;;;;1.25;0.80;;;28.30;72.00;;;;;;4962274;28;20273;-83
2022/08/24 15:39:49;;;;;;;1.35;0.90;;;28.30;72.30;;;;;;4966821;28;20042;-83
2022/08/24 15:42:15;;;;;;;0.90;0.90;;;28.20;72.20;;;;;;5003816;28;20386;-81
2022/08/24 15:44:44;;;;;;;0.75;0.75;;;28.20;72.50;;;;;;5012613;28;20504;-80
2022/08/24 15:47:29;;;;;;;0.80;0.80;;;28.20;72.70;;;;;;4996161;28;20053;-81
2022/08/24 15:50:23;;;;;;;2.13;0.93;;;28.20;74.40;;;;;;5001181;28;20042;-81
2022/08/24 15:53:04;;;;;;;1.20;1.10;;;28.20;75.20;;;;;;4995439;28;20087;-80
2022/08/24 15:55:38;;;;;;;0.95;0.80;;;28.20;75.70;;;;;;5004721;28;20061;-80
2022/08/24 15:58:26;;;;;;;2.00;1.08;;;28.20;76.00;;;;;;5005565;28;20172;-80
2022/08/24 16:03:45;;;;;;;0.90;0.90;;;28.10;74.60;;;;;;5000023;28;20417;-80
2022/08/24 16:06:31;;;;;;;1.33;1.23;;;28.20;73.00;;;;;;5005726;28;20040;-77
2022/08/24 16:09:05;;;;;;;1.30;1.20;;;28.20;71.20;;;;;;4985984;28;20037;-80
2022/08/24 16:11:40;;;;;;;1.45;1.20;;;28.30;72.10;;;;;;4994860;28;20045;-78
2022/08/24 16:14:24;;;;;;;1.17;1.10;;;28.30;70.60;;;;;;4983683;28;20088;-78
2022/08/24 16:16:49;;;;;;;1.20;1.00;;;28.40;71.70;;;;;;5001222;28;20052;-78
2022/08/24 16:19:25;;;;;;;1.33;0.93;;;28.40;71.50;;;;;;4999278;28;20406;-79
2022/08/24 16:21:56;;;;;;;0.90;0.90;;;28.40;71.10;;;;;;5004167;28;20052;-79
2022/08/24 16:24:27;;;;;;;1.20;1.10;;;28.40;71.20;;;;;;4994837;28;20038;-79
2022/08/24 16:27:15;;;;;;;1.15;1.08;;;28.40;71.90;;;;;;4993349;28;20515;-79
2022/08/24 16:29:44;;;;;;;1.00;0.90;;;28.40;72.80;;;;;;4989256;28;20033;-80
2022/08/24 16:32:21;;;;;;;4.00;1.10;;;28.40;74.20;;;;;;4972310;28;20041;-80
2022/08/24 16:34:53;;;;;;;1.40;1.30;;;28.30;74.10;;;;;;5001757;28;20459;-79
2022/08/24 16:37:20;;;;;;;1.30;1.20;;;28.30;73.40;;;;;;5010394;28;20076;-79
2022/08/24 16:39:47;;;;;;;2.35;1.10;;;28.30;73.10;;;;;;4997997;28;20045;-79
2022/08/24 16:42:25;;;;;;;1.13;1.00;;;28.20;73.40;;;;;;4985440;28;20045;-79
2022/08/24 16:44:52;;;;;;;1.13;1.02;;;28.20;73.40;;;;;;5000862;28;20453;-79
2022/08/24 16:47:18;;;;;;;1.25;1.00;;;28.10;73.70;;;;;;5000265;28;20050;-79
2022/08/24 16:49:44;;;;;;;1.17;1.08;;;28.00;73.70;;;;;;5001108;28;20088;-79
2022/08/24 16:52:10;;;;;;;1.50;1.00;;;28.00;73.70;;;;;;4992796;28;20030;-79
2022/08/24 16:54:35;;;;;;;1.17;0.80;;;27.90;73.70;;;;;;5001522;28;20069;-79
2022/08/24 16:57:12;;;;;;;1.05;1.00;;;27.90;73.70;;;;;;5003604;28;20045;-79
2022/08/24 16:59:38;;;;;;;1.10;1.00;;;27.80;75.40;;;;;;4998540;28;20137;-79
2022/08/24 17:02:03;;;;;;;1.10;0.98;;;27.80;76.20;;;;;;5007995;28;20487;-79
2022/08/24 17:04:29;;;;;;;0.93;0.90;;;27.70;76.40;;;;;;4997780;28;20184;-78
2022/08/24 17:06:55;;;;;;;1.20;1.10;;;27.60;76.50;;;;;;5003708;28;20040;-78
2022/08/24 17:09:21;;;;;;;1.10;1.00;;;27.50;76.60;;;;;;5015442;28;20037;-78
2022/08/24 17:11:48;;;;;;;1.00;0.90;;;27.50;76.80;;;;;;5006845;28;20128;-78
2022/08/24 17:14:14;;;;;;;1.80;1.20;;;27.50;77.40;;;;;;5004858;28;20056;-80
2022/08/24 17:16:41;;;;;;;1.50;1.00;;;27.40;77.50;;;;;;5001373;28;20517;-79
2022/08/24 17:19:14;;;;;;;1.35;1.10;;;27.40;77.10;;;;;;4995877;28;20049;-79
2022/08/24 17:21:40;;;;;;;1.75;1.10;;;27.40;76.80;;;;;;4972987;28;20062;-79
2022/08/24 17:24:07;;;;;;;1.30;1.20;;;27.40;76.40;;;;;;5005442;28;20106;-79
2022/08/24 17:26:33;;;;;;;1.48;1.20;;;27.40;76.30;;;;;;5007812;28;20041;-79
2022/08/24 17:29:02;;;;;;;1.10;1.00;;;27.40;75.80;;;;;;5009323;28;20045;-80
2022/08/24 17:31:29;;;;;;;1.00;0.90;;;27.40;75.80;;;;;;5008653;28;20460;-80
2022/08/24 17:33:56;;;;;;;2.60;1.10;;;27.50;75.90;;;;;;4991921;28;20030;-80
2022/08/24 17:36:22;;;;;;;1.08;0.98;;;27.40;76.50;;;;;;4979655;28;20089;-79